sensor_id;sensor_type;location;lat;lon;timestamp;pressure;altitude;pressure_sealevel;temperature;humidity
6565;BME280;3316;44.118;27.258;2023-02-03T00:00:45;101155.84;;;1.97;100.00
6565;BME280;3316;44.118;27.258;2023-02-03T00:03:11;101151.41;;;1.93;100.00
6565;BME280;3316;44.118;27.258;2023-02-03T00:05:37;101169.56;;;1.93;100.00
6565;BME280;3316;44.118;27.258;2023-02-03T00:08:04;101156.28;;;1.84;100.00
6565;BME280;3316;44.118;27.258;2023-02-03T00:10:33;101162.56;;;1.91;100.00
6565;BME280;3316;44.118;27.258;2023-02-03T00:12:59;101157.00;;;1.80;100.00
6565;BME280;3316;44.118;27.258;2023-02-03T00:15:25;101161.59;;;1.87;100.00
6565;BME280;3316;44.118;27.258;2023-02-03T00:17:51;101171.13;;;1.88;100.00
6565;BME280;3316;44.118;27.258;2023-02-03T00:20:16;101172.03;;;1.90;100.00
6565;BME280;3316;44.118;27.258;2023-02-03T00:22:42;101160.44;;;1.79;100.00
6565;BME280;3316;44.118;27.258;2023-02-03T00:25:08;101169.16;;;1.81;100.00
6565;BME280;3316;44.118;27.258;2023-02-03T00:27:33;101175.38;;;1.86;100.00
6565;BME280;3316;44.118;27.258;2023-02-03T00:29:59;101160.50;;;1.80;100.00
6565;BME280;3316;44.118;27.258;2023-02-03T00:32:24;101152.50;;;1.74;100.00
6565;BME280;3316;44.118;27.258;2023-02-03T00:34:49;101161.22;;;1.76;100.00
6565;BME280;3316;44.118;27.258;2023-02-03T00:37:15;101150.78;;;1.75;100.00
6565;BME280;3316;44.118;27.258;2023-02-03T00:39:40;101149.91;;;1.74;100.00
6565;BME280;3316;44.118;27.258;2023-02-03T00:42:06;101139.38;;;1.70;100.00
6565;BME280;3316;44.118;27.258;2023-02-03T00:44:31;101161.13;;;1.73;100.00
6565;BME280;3316;44.118;27.258;2023-02-03T00:46:58;101154.81;;;1.65;100.00
6565;BME280;3316;44.118;27.258;2023-02-03T00:49:23;101171.56;;;1.75;100.00
6565;BME280;3316;44.118;27.258;2023-02-03T00:51:50;101170.56;;;1.71;100.00
6565;BME280;3316;44.118;27.258;2023-02-03T00:54:16;101173.34;;;1.77;100.00
6565;BME280;3316;44.118;27.258;2023-02-03T00:56:41;101155.78;;;1.69;100.00
6565;BME280;3316;44.118;27.258;2023-02-03T00:59:07;101172.56;;;1.80;100.00
6565;BME280;3316;44.118;27.258;2023-02-03T01:01:33;101173.47;;;1.80;100.00
6565;BME280;3316;44.118;27.258;2023-02-03T01:03:59;101165.50;;;1.76;100.00
6565;BME280;3316;44.118;27.258;2023-02-03T01:06:25;101172.78;;;1.86;100.00
6565;BME280;3316;44.118;27.258;2023-02-03T01:08:51;101160.31;;;1.76;100.00
6565;BME280;3316;44.118;27.258;2023-02-03T01:11:21;101170.88;;;1.80;100.00
6565;BME280;3316;44.118;27.258;2023-02-03T01:13:48;101163.13;;;1.82;100.00
6565;BME280;3316;44.118;27.258;2023-02-03T01:16:17;101171.75;;;1.81;100.00
6565;BME280;3316;44.118;27.258;2023-02-03T01:18:43;101163.09;;;1.80;100.00
6565;BME280;3316;44.118;27.258;2023-02-03T01:21:12;101166.66;;;1.84;100.00
6565;BME280;3316;44.118;27.258;2023-02-03T01:23:38;101163.09;;;1.80;100.00
6565;BME280;3316;44.118;27.258;2023-02-03T01:26:06;101169.25;;;1.84;100.00
6565;BME280;3316;44.118;27.258;2023-02-03T01:28:32;101161.31;;;1.79;100.00
6565;BME280;3316;44.118;27.258;2023-02-03T01:31:15;101154.31;;;1.77;100.00
6565;BME280;3316;44.118;27.258;2023-02-03T01:33:41;101166.66;;;1.84;100.00
6565;BME280;3316;44.118;27.258;2023-02-03T01:36:10;101159.66;;;1.81;100.00
6565;BME280;3316;44.118;27.258;2023-02-03T01:38:37;101163.25;;;1.85;100.00
6565;BME280;3316;44.118;27.258;2023-02-03T01:41:04;101157.84;;;1.79;100.00
6565;BME280;3316;44.118;27.258;2023-02-03T01:43:31;101170.22;;;1.88;100.00
6565;BME280;3316;44.118;27.258;2023-02-03T01:45:58;101150.84;;;1.76;100.00
6565;BME280;3316;44.118;27.258;2023-02-03T01:48:25;101155.34;;;1.82;100.00
6565;BME280;3316;44.118;27.258;2023-02-03T01:50:50;101188.34;;;1.86;100.00
6565;BME280;3316;44.118;27.258;2023-02-03T01:53:16;101184.13;;;1.90;100.00
6565;BME280;3316;44.118;27.258;2023-02-03T01:55:46;101176.94;;;1.81;100.00
6565;BME280;3316;44.118;27.258;2023-02-03T01:58:20;101183.34;;;1.92;100.00
6565;BME280;3316;44.118;27.258;2023-02-03T02:00:49;101148.09;;;1.72;100.00
6565;BME280;3316;44.118;27.258;2023-02-03T02:03:16;101186.00;;;1.94;100.00
6565;BME280;3316;44.118;27.258;2023-02-03T02:06:16;101185.97;;;1.92;100.00
6565;BME280;3316;44.118;27.258;2023-02-03T02:08:45;101194.59;;;1.91;100.00
6565;BME280;3316;44.118;27.258;2023-02-03T02:11:11;101132.75;;;1.53;100.00
6565;BME280;3316;44.118;27.258;2023-02-03T02:13:37;101199.88;;;1.94;100.00
6565;BME280;3316;44.118;27.258;2023-02-03T02:16:30;101207.47;;;1.90;100.00
6565;BME280;3316;44.118;27.258;2023-02-03T02:38:30;101227.69;;;1.73;100.00
6565;BME280;3316;44.118;27.258;2023-02-03T02:41:09;101179.38;;;1.51;100.00
6565;BME280;3316;44.118;27.258;2023-02-03T02:47:16;101243.25;;;1.73;100.00
6565;BME280;3316;44.118;27.258;2023-02-03T02:49:44;101241.25;;;1.66;100.00
6565;BME280;3316;44.118;27.258;2023-02-03T02:52:13;101249.75;;;1.62;100.00
6565;BME280;3316;44.118;27.258;2023-02-03T02:54:44;101191.81;;;1.36;100.00
6565;BME280;3316;44.118;27.258;2023-02-03T02:57:12;101251.56;;;1.64;100.00
6565;BME280;3316;44.118;27.258;2023-02-03T02:59:39;101242.81;;;1.61;100.00
6565;BME280;3316;44.118;27.258;2023-02-03T03:02:04;101259.72;;;1.73;100.00
6565;BME280;3316;44.118;27.258;2023-02-03T03:04:32;101261.53;;;1.77;100.00
6565;BME280;3316;44.118;27.258;2023-02-03T03:07:00;101262.22;;;1.72;100.00
6565;BME280;3316;44.118;27.258;2023-02-03T03:09:32;101263.13;;;1.72;100.00
6565;BME280;3316;44.118;27.258;2023-02-03T03:12:23;101256.22;;;1.73;100.00
6565;BME280;3316;44.118;27.258;2023-02-03T03:14:55;101259.53;;;1.69;100.00
6565;BME280;3316;44.118;27.258;2023-02-03T03:17:28;101254.84;;;1.59;100.00
6565;BME280;3316;44.118;27.258;2023-02-03T03:19:56;101246.81;;;1.51;100.00
6565;BME280;3316;44.118;27.258;2023-02-03T03:22:28;101258.38;;;1.61;100.00
6565;BME280;3316;44.118;27.258;2023-02-03T03:24:59;101261.25;;;1.68;100.00
6565;BME280;3316;44.118;27.258;2023-02-03T03:27:34;101266.41;;;1.68;100.00
6565;BME280;3316;44.118;27.258;2023-02-03T03:30:10;101270.84;;;1.71;100.00
6565;BME280;3316;44.118;27.258;2023-02-03T03:32:37;101272.50;;;1.69;100.00
6565;BME280;3316;44.118;27.258;2023-02-03T03:35:04;101270.13;;;1.75;100.00
6565;BME280;3316;44.118;27.258;2023-02-03T03:37:37;101271.88;;;1.76;100.00
6565;BME280;3316;44.118;27.258;2023-02-03T03:40:09;101279.72;;;1.77;100.00
6565;BME280;3316;44.118;27.258;2023-02-03T03:45:46;101274.72;;;1.83;100.00
6565;BME280;3316;44.118;27.258;2023-02-03T03:51:11;101250.91;;;1.70;100.00
6565;BME280;3316;44.118;27.258;2023-02-03T03:53:40;101276.59;;;1.88;100.00
6565;BME280;3316;44.118;27.258;2023-02-03T03:56:11;101274.22;;;1.94;100.00
6565;BME280;3316;44.118;27.258;2023-02-03T03:58:42;101269.25;;;2.00;100.00
6565;BME280;3316;44.118;27.258;2023-02-03T04:01:10;101276.13;;;1.99;100.00
6565;BME280;3316;44.118;27.258;2023-02-03T04:03:44;101276.25;;;2.02;100.00
6565;BME280;3316;44.118;27.258;2023-02-03T04:06:11;101287.59;;;2.04;100.00
6565;BME280;3316;44.118;27.258;2023-02-03T04:08:37;101278.13;;;2.06;100.00
6565;BME280;3316;44.118;27.258;2023-02-03T04:11:04;101281.75;;;2.11;100.00
6565;BME280;3316;44.118;27.258;2023-02-03T04:13:29;101284.50;;;2.16;100.00
6565;BME280;3316;44.118;27.258;2023-02-03T04:15:55;101283.59;;;2.14;100.00
6565;BME280;3316;44.118;27.258;2023-02-03T04:18:20;101289.16;;;2.24;100.00
6565;BME280;3316;44.118;27.258;2023-02-03T04:20:45;101256.09;;;1.95;100.00
6565;BME280;3316;44.118;27.258;2023-02-03T04:23:11;101244.88;;;1.95;100.00
6565;BME280;3316;44.118;27.258;2023-02-03T04:25:36;101285.31;;;2.15;100.00
6565;BME280;3316;44.118;27.258;2023-02-03T04:28:02;101289.75;;;2.17;100.00
6565;BME280;3316;44.118;27.258;2023-02-03T04:30:27;101296.97;;;2.26;100.00
6565;BME280;3316;44.118;27.258;2023-02-03T04:32:53;101259.94;;;2.05;100.00
6565;BME280;3316;44.118;27.258;2023-02-03T04:35:19;101311.56;;;2.22;100.00
6565;BME280;3316;44.118;27.258;2023-02-03T04:37:45;101308.78;;;2.16;100.00
6565;BME280;3316;44.118;27.258;2023-02-03T04:40:11;101315.63;;;2.14;100.00
6565;BME280;3316;44.118;27.258;2023-02-03T04:42:37;101307.50;;;2.05;100.00
6565;BME280;3316;44.118;27.258;2023-02-03T04:45:04;101322.47;;;2.12;100.00
6565;BME280;3316;44.118;27.258;2023-02-03T04:47:30;101315.28;;;2.05;100.00
6565;BME280;3316;44.118;27.258;2023-02-03T04:49:55;101328.13;;;2.01;100.00
6565;BME280;3316;44.118;27.258;2023-02-03T04:52:21;101322.66;;;1.93;100.00
6565;BME280;3316;44.118;27.258;2023-02-03T04:54:46;101336.47;;;1.92;100.00
6565;BME280;3316;44.118;27.258;2023-02-03T04:57:11;101331.28;;;1.92;100.00
6565;BME280;3316;44.118;27.258;2023-02-03T04:59:37;101318.78;;;1.82;100.00
6565;BME280;3316;44.118;27.258;2023-02-03T05:02:03;101331.09;;;1.88;100.00
6565;BME280;3316;44.118;27.258;2023-02-03T05:04:29;101325.69;;;1.81;100.00
6565;BME280;3316;44.118;27.258;2023-02-03T05:06:54;101311.59;;;1.73;100.00
6565;BME280;3316;44.118;27.258;2023-02-03T05:09:23;101339.22;;;1.73;100.00
6565;BME280;3316;44.118;27.258;2023-02-03T05:11:49;101336.78;;;1.77;100.00
6565;BME280;3316;44.118;27.258;2023-02-03T05:14:14;101341.16;;;1.78;100.00
6565;BME280;3316;44.118;27.258;2023-02-03T05:16:40;101345.34;;;1.75;100.00
6565;BME280;3316;44.118;27.258;2023-02-03T05:19:05;101353.63;;;1.65;100.00
6565;BME280;3316;44.118;27.258;2023-02-03T05:21:31;101345.72;;;1.62;100.00
6565;BME280;3316;44.118;27.258;2023-02-03T05:23:56;101345.66;;;1.60;100.00
6565;BME280;3316;44.118;27.258;2023-02-03T05:26:22;101360.69;;;1.69;100.00
6565;BME280;3316;44.118;27.258;2023-02-03T05:28:47;101356.84;;;1.58;100.00
6565;BME280;3316;44.118;27.258;2023-02-03T05:31:12;101355.22;;;1.61;100.00
6565;BME280;3316;44.118;27.258;2023-02-03T05:33:38;101359.28;;;1.55;100.00
6565;BME280;3316;44.118;27.258;2023-02-03T05:36:03;101327.63;;;1.40;100.00
6565;BME280;3316;44.118;27.258;2023-02-03T05:38:29;101347.97;;;1.53;100.00
6565;BME280;3316;44.118;27.258;2023-02-03T05:40:54;101343.63;;;1.52;100.00
6565;BME280;3316;44.118;27.258;2023-02-03T05:43:38;101365.66;;;1.63;100.00
6565;BME280;3316;44.118;27.258;2023-02-03T05:46:05;101370.00;;;1.64;100.00
6565;BME280;3316;44.118;27.258;2023-02-03T05:48:32;101367.59;;;1.68;100.00
6565;BME280;3316;44.118;27.258;2023-02-03T05:50:58;101365.22;;;1.74;100.00
6565;BME280;3316;44.118;27.258;2023-02-03T05:53:23;101380.66;;;1.95;100.00
6565;BME280;3316;44.118;27.258;2023-02-03T05:55:50;101387.44;;;2.91;100.00
6565;BME280;3316;44.118;27.258;2023-02-03T05:58:16;101402.91;;;4.30;100.00
6565;BME280;3316;44.118;27.258;2023-02-03T06:00:41;101408.91;;;4.93;100.00
6565;BME280;3316;44.118;27.258;2023-02-03T06:03:07;101392.91;;;5.52;100.00
6565;BME280;3316;44.118;27.258;2023-02-03T06:05:33;101410.72;;;6.55;100.00
6565;BME280;3316;44.118;27.258;2023-02-03T06:08:00;101415.78;;;6.93;100.00
6565;BME280;3316;44.118;27.258;2023-02-03T06:10:26;101429.22;;;7.73;100.00
6565;BME280;3316;44.118;27.258;2023-02-03T06:12:52;101426.34;;;8.21;100.00
6565;BME280;3316;44.118;27.258;2023-02-03T06:15:18;101434.78;;;8.72;97.18
6565;BME280;3316;44.118;27.258;2023-02-03T06:17:47;101429.72;;;8.87;91.87
6565;BME280;3316;44.118;27.258;2023-02-03T06:20:15;101422.88;;;9.07;87.70
6565;BME280;3316;44.118;27.258;2023-02-03T06:22:41;101423.31;;;9.66;83.29
6565;BME280;3316;44.118;27.258;2023-02-03T06:25:07;101439.50;;;10.53;75.49
6565;BME280;3316;44.118;27.258;2023-02-03T06:27:33;101427.28;;;10.89;70.45
6565;BME280;3316;44.118;27.258;2023-02-03T06:29:59;101444.84;;;11.09;67.50
6565;BME280;3316;44.118;27.258;2023-02-03T06:32:24;101452.75;;;11.62;65.30
6565;BME280;3316;44.118;27.258;2023-02-03T06:34:50;101451.66;;;12.31;62.59
6565;BME280;3316;44.118;27.258;2023-02-03T06:37:16;101462.81;;;12.89;58.06
6565;BME280;3316;44.118;27.258;2023-02-03T06:39:42;101418.38;;;13.40;56.66
6565;BME280;3316;44.118;27.258;2023-02-03T06:42:07;101455.44;;;14.18;53.08
6565;BME280;3316;44.118;27.258;2023-02-03T06:44:33;101470.13;;;13.66;53.35
6565;BME280;3316;44.118;27.258;2023-02-03T06:46:58;101468.63;;;13.34;53.78
6565;BME280;3316;44.118;27.258;2023-02-03T06:49:26;101473.06;;;13.32;53.50
6565;BME280;3316;44.118;27.258;2023-02-03T06:51:51;101477.56;;;14.12;52.08
6565;BME280;3316;44.118;27.258;2023-02-03T06:54:17;101477.44;;;14.91;49.76
6565;BME280;3316;44.118;27.258;2023-02-03T06:56:43;101481.09;;;14.83;49.42
6565;BME280;3316;44.118;27.258;2023-02-03T06:59:08;101456.19;;;14.94;47.79
6565;BME280;3316;44.118;27.258;2023-02-03T07:01:35;101490.41;;;15.66;47.03
6565;BME280;3316;44.118;27.258;2023-02-03T07:04:01;101485.81;;;16.21;45.68
6565;BME280;3316;44.118;27.258;2023-02-03T07:06:28;101415.13;;;16.16;44.25
6565;BME280;3316;44.118;27.258;2023-02-03T07:08:57;101495.22;;;15.93;44.65
6565;BME280;3316;44.118;27.258;2023-02-03T07:11:23;101517.69;;;15.74;44.75
6565;BME280;3316;44.118;27.258;2023-02-03T07:13:50;101518.84;;;16.52;43.68
6565;BME280;3316;44.118;27.258;2023-02-03T07:16:16;101518.72;;;16.58;42.94
6565;BME280;3316;44.118;27.258;2023-02-03T07:18:41;101529.78;;;16.36;43.20
6565;BME280;3316;44.118;27.258;2023-02-03T07:21:07;101514.75;;;15.89;43.24
6565;BME280;3316;44.118;27.258;2023-02-03T07:23:32;101524.88;;;15.11;45.31
6565;BME280;3316;44.118;27.258;2023-02-03T07:25:59;101526.97;;;15.97;43.80
6565;BME280;3316;44.118;27.258;2023-02-03T07:28:25;101522.59;;;16.85;42.87
6565;BME280;3316;44.118;27.258;2023-02-03T07:30:50;101521.66;;;17.26;41.27
6565;BME280;3316;44.118;27.258;2023-02-03T07:33:16;101524.78;;;16.65;42.20
6565;BME280;3316;44.118;27.258;2023-02-03T07:35:41;101514.28;;;16.15;43.20
6565;BME280;3316;44.118;27.258;2023-02-03T07:38:06;101536.00;;;15.89;43.83
6565;BME280;3316;44.118;27.258;2023-02-03T07:40:32;101544.28;;;17.05;42.76
6565;BME280;3316;44.118;27.258;2023-02-03T07:42:57;101551.44;;;17.02;41.86
6565;BME280;3316;44.118;27.258;2023-02-03T07:45:24;101531.59;;;16.34;42.29
6565;BME280;3316;44.118;27.258;2023-02-03T07:47:49;101534.88;;;16.48;42.90
6565;BME280;3316;44.118;27.258;2023-02-03T07:50:15;101529.13;;;16.23;43.00
6565;BME280;3316;44.118;27.258;2023-02-03T07:52:40;101537.84;;;16.75;43.03
6565;BME280;3316;44.118;27.258;2023-02-03T07:55:07;101550.69;;;16.97;41.45
6565;BME280;3316;44.118;27.258;2023-02-03T07:57:32;101551.31;;;17.08;41.24
6565;BME280;3316;44.118;27.258;2023-02-03T07:59:58;101538.47;;;17.64;40.26
6565;BME280;3316;44.118;27.258;2023-02-03T08:02:23;101539.50;;;17.57;40.53
6565;BME280;3316;44.118;27.258;2023-02-03T08:04:49;101554.84;;;18.17;39.00
6565;BME280;3316;44.118;27.258;2023-02-03T08:07:14;101559.66;;;18.03;39.58
6565;BME280;3316;44.118;27.258;2023-02-03T08:09:40;101559.72;;;19.24;38.05
6565;BME280;3316;44.118;27.258;2023-02-03T08:12:05;101555.78;;;20.15;36.74
6565;BME280;3316;44.118;27.258;2023-02-03T08:14:30;101554.25;;;19.82;36.52
6565;BME280;3316;44.118;27.258;2023-02-03T08:16:56;101530.47;;;19.48;36.30
6565;BME280;3316;44.118;27.258;2023-02-03T08:19:22;101560.44;;;20.35;35.48
6565;BME280;3316;44.118;27.258;2023-02-03T08:21:47;101570.84;;;20.18;35.28
6565;BME280;3316;44.118;27.258;2023-02-03T08:24:12;101550.41;;;21.34;34.33
6565;BME280;3316;44.118;27.258;2023-02-03T08:26:38;101580.97;;;20.82;33.59
6565;BME280;3316;44.118;27.258;2023-02-03T08:29:04;101582.44;;;20.17;35.11
6565;BME280;3316;44.118;27.258;2023-02-03T08:31:30;101571.41;;;20.01;34.07
6565;BME280;3316;44.118;27.258;2023-02-03T08:33:55;101583.72;;;20.81;33.26
6565;BME280;3316;44.118;27.258;2023-02-03T08:36:21;101553.75;;;19.71;35.00
6565;BME280;3316;44.118;27.258;2023-02-03T08:38:46;101598.66;;;20.12;33.94
6565;BME280;3316;44.118;27.258;2023-02-03T08:41:15;101565.75;;;20.10;34.63
6565;BME280;3316;44.118;27.258;2023-02-03T08:43:42;101596.91;;;19.85;33.61
6565;BME280;3316;44.118;27.258;2023-02-03T08:46:09;101618.38;;;20.08;33.49
6565;BME280;3316;44.118;27.258;2023-02-03T08:48:35;101601.56;;;20.80;33.02
6565;BME280;3316;44.118;27.258;2023-02-03T08:51:02;101625.00;;;22.09;31.78
6565;BME280;3316;44.118;27.258;2023-02-03T08:53:33;101612.78;;;23.22;31.07
6565;BME280;3316;44.118;27.258;2023-02-03T08:55:58;101613.44;;;24.52;29.38
6565;BME280;3316;44.118;27.258;2023-02-03T08:58:24;101615.91;;;25.22;28.47
6565;BME280;3316;44.118;27.258;2023-02-03T09:00:49;101620.06;;;24.11;28.65
6565;BME280;3316;44.118;27.258;2023-02-03T09:03:17;101620.00;;;24.13;29.49
6565;BME280;3316;44.118;27.258;2023-02-03T09:05:43;101626.84;;;20.95;31.83
6565;BME280;3316;44.118;27.258;2023-02-03T09:08:09;101628.69;;;18.10;36.43
6565;BME280;3316;44.118;27.258;2023-02-03T09:10:34;101628.66;;;19.39;36.53
6565;BME280;3316;44.118;27.258;2023-02-03T09:13:00;101637.47;;;21.89;33.22
6565;BME280;3316;44.118;27.258;2023-02-03T09:15:25;101633.94;;;21.88;32.51
6565;BME280;3316;44.118;27.258;2023-02-03T09:17:51;101636.06;;;22.22;31.92
6565;BME280;3316;44.118;27.258;2023-02-03T09:20:17;101623.41;;;23.25;31.39
6565;BME280;3316;44.118;27.258;2023-02-03T09:22:43;101621.75;;;24.31;29.93
6565;BME280;3316;44.118;27.258;2023-02-03T09:25:08;101615.78;;;24.07;29.58
6565;BME280;3316;44.118;27.258;2023-02-03T09:27:34;101602.75;;;22.28;31.04
6565;BME280;3316;44.118;27.258;2023-02-03T09:29:59;101609.72;;;21.00;33.06
6565;BME280;3316;44.118;27.258;2023-02-03T09:32:25;101615.34;;;20.19;34.33
6565;BME280;3316;44.118;27.258;2023-02-03T09:34:50;101582.25;;;18.20;36.88
6565;BME280;3316;44.118;27.258;2023-02-03T09:37:15;101582.47;;;16.11;40.22
6565;BME280;3316;44.118;27.258;2023-02-03T09:39:41;101560.81;;;14.63;43.43
6565;BME280;3316;44.118;27.258;2023-02-03T09:42:27;101596.81;;;13.97;46.46
6565;BME280;3316;44.118;27.258;2023-02-03T09:45:05;101602.03;;;12.53;49.33
6565;BME280;3316;44.118;27.258;2023-02-03T09:47:37;101595.09;;;11.54;53.83
6565;BME280;3316;44.118;27.258;2023-02-03T09:50:18;101585.09;;;10.54;59.44
6565;BME280;3316;44.118;27.258;2023-02-03T09:52:45;101585.63;;;10.05;66.65
6565;BME280;3316;44.118;27.258;2023-02-03T09:57:57;101600.84;;;10.48;70.59
6565;BME280;3316;44.118;27.258;2023-02-03T10:00:29;101588.00;;;11.17;63.32
6565;BME280;3316;44.118;27.258;2023-02-03T10:03:05;101551.78;;;10.53;63.63
6565;BME280;3316;44.118;27.258;2023-02-03T10:08:02;101595.44;;;10.22;65.63
6565;BME280;3316;44.118;27.258;2023-02-03T10:10:37;101592.56;;;9.91;67.61
6565;BME280;3316;44.118;27.258;2023-02-03T10:13:25;101587.94;;;9.59;73.63
6565;BME280;3316;44.118;27.258;2023-02-03T10:18:56;101581.13;;;9.81;76.37
6565;BME280;3316;44.118;27.258;2023-02-03T10:21:42;101571.47;;;9.83;77.96
6565;BME280;3316;44.118;27.258;2023-02-03T10:24:25;101591.03;;;10.14;74.86
6565;BME280;3316;44.118;27.258;2023-02-03T10:26:52;101584.63;;;9.84;74.43
6565;BME280;3316;44.118;27.258;2023-02-03T10:29:21;101589.13;;;10.01;77.65
6565;BME280;3316;44.118;27.258;2023-02-03T10:31:54;101575.06;;;9.99;77.94
6565;BME280;3316;44.118;27.258;2023-02-03T10:34:19;101599.88;;;10.29;73.31
6565;BME280;3316;44.118;27.258;2023-02-03T10:36:59;101575.41;;;10.41;70.13
6565;BME280;3316;44.118;27.258;2023-02-03T10:39:34;101583.16;;;10.20;72.53
6565;BME280;3316;44.118;27.258;2023-02-03T10:42:02;101579.59;;;10.12;72.56
6565;BME280;3316;44.118;27.258;2023-02-03T10:44:40;101594.50;;;10.10;74.30
6565;BME280;3316;44.118;27.258;2023-02-03T10:47:23;101603.16;;;10.00;76.27
6565;BME280;3316;44.118;27.258;2023-02-03T10:49:51;101598.31;;;9.46;81.78
6565;BME280;3316;44.118;27.258;2023-02-03T10:52:28;101579.69;;;9.23;86.09
6565;BME280;3316;44.118;27.258;2023-02-03T10:54:55;101519.47;;;8.59;86.61
6565;BME280;3316;44.118;27.258;2023-02-03T10:57:21;101601.28;;;8.95;88.38
6565;BME280;3316;44.118;27.258;2023-02-03T10:59:47;101597.59;;;8.79;87.24
6565;BME280;3316;44.118;27.258;2023-02-03T11:02:26;101598.25;;;8.63;92.38
6565;BME280;3316;44.118;27.258;2023-02-03T11:07:42;101583.88;;;8.34;100.00
6565;BME280;3316;44.118;27.258;2023-02-03T11:10:30;101582.31;;;8.48;99.34
6565;BME280;3316;44.118;27.258;2023-02-03T11:13:24;101566.63;;;8.54;95.75
6565;BME280;3316;44.118;27.258;2023-02-03T11:16:16;101580.88;;;8.73;93.69
6565;BME280;3316;44.118;27.258;2023-02-03T11:21:28;101530.47;;;8.28;92.01
6565;BME280;3316;44.118;27.258;2023-02-03T11:24:00;101570.84;;;8.42;92.74
6565;BME280;3316;44.118;27.258;2023-02-03T11:26:45;101570.13;;;8.52;95.22
6565;BME280;3316;44.118;27.258;2023-02-03T11:29:19;101571.75;;;8.44;96.38
6565;BME280;3316;44.118;27.258;2023-02-03T11:31:48;101566.53;;;8.45;93.09
6565;BME280;3316;44.118;27.258;2023-02-03T11:34:18;101571.03;;;8.57;94.05
6565;BME280;3316;44.118;27.258;2023-02-03T11:36:48;101566.84;;;8.69;92.15
6565;BME280;3316;44.118;27.258;2023-02-03T11:41:46;101552.81;;;8.66;90.89
6565;BME280;3316;44.118;27.258;2023-02-03T11:44:26;101557.16;;;8.64;89.66
6565;BME280;3316;44.118;27.258;2023-02-03T11:47:00;101556.44;;;8.77;85.11
6565;BME280;3316;44.118;27.258;2023-02-03T11:55:11;101563.84;;;9.13;81.82
6565;BME280;3316;44.118;27.258;2023-02-03T11:57:58;101551.63;;;9.15;80.63
6565;BME280;3316;44.118;27.258;2023-02-03T12:19:14;101530.41;;;8.96;80.82
6565;BME280;3316;44.118;27.258;2023-02-03T12:24:22;101536.84;;;8.48;88.49
6565;BME280;3316;44.118;27.258;2023-02-03T12:29:33;101485.28;;;8.48;93.28
6565;BME280;3316;44.118;27.258;2023-02-03T12:32:17;101535.69;;;8.98;91.36
6565;BME280;3316;44.118;27.258;2023-02-03T12:37:26;101527.41;;;9.49;85.32
6565;BME280;3316;44.118;27.258;2023-02-03T12:40:02;101470.44;;;9.43;87.11
6565;BME280;3316;44.118;27.258;2023-02-03T12:42:30;101520.56;;;9.70;82.86
6565;BME280;3316;44.118;27.258;2023-02-03T12:47:28;101507.28;;;9.52;83.94
6565;BME280;3316;44.118;27.258;2023-02-03T12:52:34;101513.25;;;9.33;88.77
6565;BME280;3316;44.118;27.258;2023-02-03T12:57:57;101514.22;;;9.41;82.78
6565;BME280;3316;44.118;27.258;2023-02-03T13:05:46;101508.00;;;9.30;79.80
6565;BME280;3316;44.118;27.258;2023-02-03T13:08:35;101514.16;;;9.35;81.77
6565;BME280;3316;44.118;27.258;2023-02-03T13:13:38;101504.34;;;9.15;84.75
6565;BME280;3316;44.118;27.258;2023-02-03T13:16:07;101501.75;;;9.21;84.71
6565;BME280;3316;44.118;27.258;2023-02-03T13:18:36;101484.00;;;8.91;80.47
6565;BME280;3316;44.118;27.258;2023-02-03T13:21:02;101503.34;;;9.01;84.50
6565;BME280;3316;44.118;27.258;2023-02-03T13:23:28;101482.34;;;9.05;82.19
6565;BME280;3316;44.118;27.258;2023-02-03T13:26:11;101495.66;;;9.23;81.05
6565;BME280;3316;44.118;27.258;2023-02-03T13:40:26;101496.78;;;8.62;88.72
6565;BME280;3316;44.118;27.258;2023-02-03T13:42:36;101482.53;;;8.38;87.40
6565;BME280;3316;44.118;27.258;2023-02-03T13:45:19;101494.06;;;8.52;84.24
6565;BME280;3316;44.118;27.258;2023-02-03T13:47:50;101457.13;;;8.34;83.94
6565;BME280;3316;44.118;27.258;2023-02-03T13:50:29;101492.13;;;8.39;80.17
6565;BME280;3316;44.118;27.258;2023-02-03T13:53:18;101489.34;;;8.25;73.68
6565;BME280;3316;44.118;27.258;2023-02-03T13:55:59;101477.59;;;7.97;70.10
6565;BME280;3316;44.118;27.258;2023-02-03T13:58:31;101489.75;;;7.92;69.88
6565;BME280;3316;44.118;27.258;2023-02-03T14:03:52;101492.63;;;8.10;70.95
6565;BME280;3316;44.118;27.258;2023-02-03T14:11:44;101493.53;;;8.13;87.55
6565;BME280;3316;44.118;27.258;2023-02-03T14:17:00;101489.63;;;7.82;88.33
6565;BME280;3316;44.118;27.258;2023-02-03T14:24:29;101421.69;;;6.82;97.24
6565;BME280;3316;44.118;27.258;2023-02-03T14:26:57;101474.50;;;7.10;95.56
6565;BME280;3316;44.118;27.258;2023-02-03T14:29:31;101481.44;;;7.10;96.43
6565;BME280;3316;44.118;27.258;2023-02-03T14:32:00;101476.16;;;7.05;96.16
6565;BME280;3316;44.118;27.258;2023-02-03T14:34:47;101479.91;;;7.21;90.52
6565;BME280;3316;44.118;27.258;2023-02-03T14:37:20;101479.25;;;7.33;87.51
6565;BME280;3316;44.118;27.258;2023-02-03T14:59:00;101424.66;;;7.03;87.57
6565;BME280;3316;44.118;27.258;2023-02-03T15:06:47;101447.16;;;6.93;96.20
6565;BME280;3316;44.118;27.258;2023-02-03T15:09:33;101457.53;;;6.87;97.50
6565;BME280;3316;44.118;27.258;2023-02-03T15:12:18;101412.47;;;6.54;98.96
6565;BME280;3316;44.118;27.258;2023-02-03T15:14:47;101460.66;;;6.68;100.00
6565;BME280;3316;44.118;27.258;2023-02-03T15:17:21;101426.13;;;6.40;100.00
6565;BME280;3316;44.118;27.258;2023-02-03T15:19:48;101435.81;;;6.45;100.00
6565;BME280;3316;44.118;27.258;2023-02-03T15:22:25;101463.97;;;6.60;100.00
6565;BME280;3316;44.118;27.258;2023-02-03T15:24:54;101412.84;;;6.27;100.00
6565;BME280;3316;44.118;27.258;2023-02-03T15:27:26;101450.34;;;6.29;100.00
6565;BME280;3316;44.118;27.258;2023-02-03T15:29:52;101451.09;;;6.24;100.00
6565;BME280;3316;44.118;27.258;2023-02-03T15:32:26;101458.88;;;6.22;100.00
6565;BME280;3316;44.118;27.258;2023-02-03T15:34:56;101457.91;;;6.16;100.00
6565;BME280;3316;44.118;27.258;2023-02-03T15:38:05;101448.19;;;6.10;100.00